Terminal Aerodrome Forecast
Issued by NWS

Home | Current Version | Previous Version | Text Only | Print | Product List | Glossary On
Versions: 1 2 3 4 5 6 7 8 9 10 11 12 13 14 15 16 17 18 19 20 21 22 23 24 25 26 27 28 29 30 31 32 33 34 35 36 37 38 39 40 41 42 43 44 45 46 47 48 49 50
875
FTUS43 KMKX 240540
TAFUES
TAF
KUES 240540Z 2406/2506 00000KT 5SM BR OVC008
     FM241600 00000KT P6SM OVC010
     FM241800 00000KT P6SM OVC020
     FM250000 10006KT P6SM OVC020
     FM250300 11006KT P6SM OVC015
     FM250500 11007KT 4SM -RASN OVC015=

USA.gov is the U.S. government's official web portal to all federal, state and local government web resources and services.